sensor_id;sensor_type;location;lat;lon;timestamp;temperature;humidity
16301;DHT22;8258;51.020;4.248;2024-02-26T00:13:58;7.10;99.90
16301;DHT22;8258;51.020;4.248;2024-02-26T00:16:25;7.10;99.90
16301;DHT22;8258;51.020;4.248;2024-02-26T00:18:52;7.10;99.90
16301;DHT22;8258;51.020;4.248;2024-02-26T00:21:19;7.10;99.90
16301;DHT22;8258;51.020;4.248;2024-02-26T00:23:46;7.10;99.90
16301;DHT22;8258;51.020;4.248;2024-02-26T00:26:12;7.10;99.90
16301;DHT22;8258;51.020;4.248;2024-02-26T00:28:40;7.00;99.90
16301;DHT22;8258;51.020;4.248;2024-02-26T00:31:09;7.00;99.90
16301;DHT22;8258;51.020;4.248;2024-02-26T00:33:37;7.00;99.90
16301;DHT22;8258;51.020;4.248;2024-02-26T00:36:05;6.90;99.90
16301;DHT22;8258;51.020;4.248;2024-02-26T00:38:33;6.90;99.90
16301;DHT22;8258;51.020;4.248;2024-02-26T00:41:00;6.90;99.90
16301;DHT22;8258;51.020;4.248;2024-02-26T00:43:27;6.90;99.90
16301;DHT22;8258;51.020;4.248;2024-02-26T00:45:57;6.80;99.90
16301;DHT22;8258;51.020;4.248;2024-02-26T00:48:28;6.80;99.90
16301;DHT22;8258;51.020;4.248;2024-02-26T00:50:56;6.80;99.90
16301;DHT22;8258;51.020;4.248;2024-02-26T00:53:23;6.80;99.90
16301;DHT22;8258;51.020;4.248;2024-02-26T00:55:51;6.90;99.90
16301;DHT22;8258;51.020;4.248;2024-02-26T00:58:18;6.90;99.90
16301;DHT22;8258;51.020;4.248;2024-02-26T01:00:45;6.90;99.90
16301;DHT22;8258;51.020;4.248;2024-02-26T01:03:12;6.90;99.90
16301;DHT22;8258;51.020;4.248;2024-02-26T01:05:41;6.90;99.90
16301;DHT22;8258;51.020;4.248;2024-02-26T01:08:08;6.90;99.90
16301;DHT22;8258;51.020;4.248;2024-02-26T01:10:35;6.90;99.90
16301;DHT22;8258;51.020;4.248;2024-02-26T01:13:02;6.90;99.90
16301;DHT22;8258;51.020;4.248;2024-02-26T01:36:15;6.70;99.90
16301;DHT22;8258;51.020;4.248;2024-02-26T02:25:26;6.40;99.90
16301;DHT22;8258;51.020;4.248;2024-02-26T02:27:54;6.40;99.90
16301;DHT22;8258;51.020;4.248;2024-02-26T02:30:25;6.40;99.90
16301;DHT22;8258;51.020;4.248;2024-02-26T02:32:53;6.40;99.90
16301;DHT22;8258;51.020;4.248;2024-02-26T02:35:20;6.40;99.90
16301;DHT22;8258;51.020;4.248;2024-02-26T02:37:50;6.40;99.90
16301;DHT22;8258;51.020;4.248;2024-02-26T02:40:17;6.30;99.90
16301;DHT22;8258;51.020;4.248;2024-02-26T02:42:48;6.30;99.90
16301;DHT22;8258;51.020;4.248;2024-02-26T02:45:15;6.30;99.90
16301;DHT22;8258;51.020;4.248;2024-02-26T02:47:42;6.30;99.90
16301;DHT22;8258;51.020;4.248;2024-02-26T02:50:11;6.30;99.90
16301;DHT22;8258;51.020;4.248;2024-02-26T02:52:38;6.20;99.90
16301;DHT22;8258;51.020;4.248;2024-02-26T02:55:05;6.30;99.90
16301;DHT22;8258;51.020;4.248;2024-02-26T02:57:33;6.20;99.90
16301;DHT22;8258;51.020;4.248;2024-02-26T03:00:04;6.20;99.90
16301;DHT22;8258;51.020;4.248;2024-02-26T03:02:31;6.20;99.90
16301;DHT22;8258;51.020;4.248;2024-02-26T03:04:58;6.20;99.90
16301;DHT22;8258;51.020;4.248;2024-02-26T03:07:25;6.10;99.90
16301;DHT22;8258;51.020;4.248;2024-02-26T03:09:52;6.10;99.90
16301;DHT22;8258;51.020;4.248;2024-02-26T03:12:21;6.10;99.90
16301;DHT22;8258;51.020;4.248;2024-02-26T03:14:51;6.00;99.90
16301;DHT22;8258;51.020;4.248;2024-02-26T03:17:21;6.00;99.90
16301;DHT22;8258;51.020;4.248;2024-02-26T03:19:49;6.10;99.90
16301;DHT22;8258;51.020;4.248;2024-02-26T03:22:20;6.00;99.90
16301;DHT22;8258;51.020;4.248;2024-02-26T03:24:47;6.00;99.90
16301;DHT22;8258;51.020;4.248;2024-02-26T03:27:14;6.00;99.90
16301;DHT22;8258;51.020;4.248;2024-02-26T03:29:41;6.10;99.90
16301;DHT22;8258;51.020;4.248;2024-02-26T03:32:09;6.00;99.90
16301;DHT22;8258;51.020;4.248;2024-02-26T03:34:37;6.10;99.90
16301;DHT22;8258;51.020;4.248;2024-02-26T03:37:06;6.10;99.90
16301;DHT22;8258;51.020;4.248;2024-02-26T03:39:35;6.00;99.90
16301;DHT22;8258;51.020;4.248;2024-02-26T03:42:03;6.00;99.90
16301;DHT22;8258;51.020;4.248;2024-02-26T03:44:30;6.10;99.90
16301;DHT22;8258;51.020;4.248;2024-02-26T03:46:57;6.10;99.90
16301;DHT22;8258;51.020;4.248;2024-02-26T03:49:24;6.10;99.90
16301;DHT22;8258;51.020;4.248;2024-02-26T03:51:53;6.10;99.90
16301;DHT22;8258;51.020;4.248;2024-02-26T05:04:25;6.10;99.90
16301;DHT22;8258;51.020;4.248;2024-02-26T05:06:52;6.10;99.90
16301;DHT22;8258;51.020;4.248;2024-02-26T05:09:20;6.10;99.90
16301;DHT22;8258;51.020;4.248;2024-02-26T05:11:47;6.10;99.90
16301;DHT22;8258;51.020;4.248;2024-02-26T05:14:14;6.10;99.90
16301;DHT22;8258;51.020;4.248;2024-02-26T05:16:41;6.10;99.90
16301;DHT22;8258;51.020;4.248;2024-02-26T05:19:08;6.10;99.90
16301;DHT22;8258;51.020;4.248;2024-02-26T05:21:37;6.00;99.90
16301;DHT22;8258;51.020;4.248;2024-02-26T05:24:04;6.10;99.90
16301;DHT22;8258;51.020;4.248;2024-02-26T05:26:31;6.10;99.90
16301;DHT22;8258;51.020;4.248;2024-02-26T05:28:58;6.10;99.90
16301;DHT22;8258;51.020;4.248;2024-02-26T05:31:26;6.10;99.90
16301;DHT22;8258;51.020;4.248;2024-02-26T05:33:54;6.10;99.90
16301;DHT22;8258;51.020;4.248;2024-02-26T05:36:22;6.10;99.90
16301;DHT22;8258;51.020;4.248;2024-02-26T05:38:50;6.10;99.90
16301;DHT22;8258;51.020;4.248;2024-02-26T05:41:18;6.10;99.90
16301;DHT22;8258;51.020;4.248;2024-02-26T05:43:48;6.10;99.90
16301;DHT22;8258;51.020;4.248;2024-02-26T05:46:16;6.00;99.90
16301;DHT22;8258;51.020;4.248;2024-02-26T05:48:47;6.10;99.90
16301;DHT22;8258;51.020;4.248;2024-02-26T05:51:15;6.10;99.90
16301;DHT22;8258;51.020;4.248;2024-02-26T05:53:42;6.10;99.90
16301;DHT22;8258;51.020;4.248;2024-02-26T05:56:11;6.10;99.90
16301;DHT22;8258;51.020;4.248;2024-02-26T05:58:37;6.10;99.90
16301;DHT22;8258;51.020;4.248;2024-02-26T06:01:04;6.10;99.90
16301;DHT22;8258;51.020;4.248;2024-02-26T06:03:33;6.10;99.90
16301;DHT22;8258;51.020;4.248;2024-02-26T06:06:00;6.00;99.90
16301;DHT22;8258;51.020;4.248;2024-02-26T06:08:29;6.00;99.90
16301;DHT22;8258;51.020;4.248;2024-02-26T06:10:56;6.10;99.90
16301;DHT22;8258;51.020;4.248;2024-02-26T06:13:25;6.00;99.90
16301;DHT22;8258;51.020;4.248;2024-02-26T06:16:00;6.00;99.90
16301;DHT22;8258;51.020;4.248;2024-02-26T06:18:32;6.00;99.90
16301;DHT22;8258;51.020;4.248;2024-02-26T06:21:00;6.00;99.90
16301;DHT22;8258;51.020;4.248;2024-02-26T06:23:27;6.00;99.90
16301;DHT22;8258;51.020;4.248;2024-02-26T06:25:56;6.00;99.90
16301;DHT22;8258;51.020;4.248;2024-02-26T06:28:25;6.10;99.90
16301;DHT22;8258;51.020;4.248;2024-02-26T06:30:52;6.10;99.90
16301;DHT22;8258;51.020;4.248;2024-02-26T06:33:19;6.10;99.90
16301;DHT22;8258;51.020;4.248;2024-02-26T06:35:46;6.10;99.90
16301;DHT22;8258;51.020;4.248;2024-02-26T06:38:13;6.10;99.90
16301;DHT22;8258;51.020;4.248;2024-02-26T06:40:43;6.10;99.90
16301;DHT22;8258;51.020;4.248;2024-02-26T06:43:10;6.10;99.90
16301;DHT22;8258;51.020;4.248;2024-02-26T06:45:38;6.10;99.90
16301;DHT22;8258;51.020;4.248;2024-02-26T06:48:07;6.10;99.90
16301;DHT22;8258;51.020;4.248;2024-02-26T06:50:35;6.10;99.90
16301;DHT22;8258;51.020;4.248;2024-02-26T06:53:02;6.10;99.90
16301;DHT22;8258;51.020;4.248;2024-02-26T06:55:32;6.10;99.90
16301;DHT22;8258;51.020;4.248;2024-02-26T06:57:59;6.00;99.90
16301;DHT22;8258;51.020;4.248;2024-02-26T07:00:27;6.00;99.90
16301;DHT22;8258;51.020;4.248;2024-02-26T07:02:55;6.00;99.90
16301;DHT22;8258;51.020;4.248;2024-02-26T07:05:23;5.90;99.90
16301;DHT22;8258;51.020;4.248;2024-02-26T07:07:51;5.90;99.90
16301;DHT22;8258;51.020;4.248;2024-02-26T07:10:19;5.80;99.90
16301;DHT22;8258;51.020;4.248;2024-02-26T07:12:47;5.80;99.90
16301;DHT22;8258;51.020;4.248;2024-02-26T08:25:21;5.90;99.90
16301;DHT22;8258;51.020;4.248;2024-02-26T08:27:48;5.80;99.90
16301;DHT22;8258;51.020;4.248;2024-02-26T08:30:16;5.90;99.90
16301;DHT22;8258;51.020;4.248;2024-02-26T08:32:43;5.90;99.90
16301;DHT22;8258;51.020;4.248;2024-02-26T08:35:11;5.90;99.90
16301;DHT22;8258;51.020;4.248;2024-02-26T08:37:39;6.00;99.90
16301;DHT22;8258;51.020;4.248;2024-02-26T08:40:07;6.00;99.90
16301;DHT22;8258;51.020;4.248;2024-02-26T08:42:36;6.10;99.90
16301;DHT22;8258;51.020;4.248;2024-02-26T08:45:03;6.00;99.90
16301;DHT22;8258;51.020;4.248;2024-02-26T08:47:30;6.00;99.90
16301;DHT22;8258;51.020;4.248;2024-02-26T08:49:58;6.00;99.90
16301;DHT22;8258;51.020;4.248;2024-02-26T08:52:25;6.00;99.90
16301;DHT22;8258;51.020;4.248;2024-02-26T08:54:52;6.00;99.90
16301;DHT22;8258;51.020;4.248;2024-02-26T08:57:19;6.00;99.90
16301;DHT22;8258;51.020;4.248;2024-02-26T08:59:47;6.10;99.90
16301;DHT22;8258;51.020;4.248;2024-02-26T09:02:14;6.20;99.90
16301;DHT22;8258;51.020;4.248;2024-02-26T09:04:41;6.30;99.90
16301;DHT22;8258;51.020;4.248;2024-02-26T09:07:08;6.30;99.90
16301;DHT22;8258;51.020;4.248;2024-02-26T09:09:35;6.20;99.90
16301;DHT22;8258;51.020;4.248;2024-02-26T09:12:03;6.10;99.90
16301;DHT22;8258;51.020;4.248;2024-02-26T09:14:31;6.10;99.90
16301;DHT22;8258;51.020;4.248;2024-02-26T09:16:59;6.00;99.90
16301;DHT22;8258;51.020;4.248;2024-02-26T09:19:27;6.00;99.90
16301;DHT22;8258;51.020;4.248;2024-02-26T09:21:54;6.00;99.90
16301;DHT22;8258;51.020;4.248;2024-02-26T09:24:23;6.00;99.90
16301;DHT22;8258;51.020;4.248;2024-02-26T09:26:50;6.00;99.90
16301;DHT22;8258;51.020;4.248;2024-02-26T09:29:17;6.00;99.90
16301;DHT22;8258;51.020;4.248;2024-02-26T09:31:45;6.00;99.90
16301;DHT22;8258;51.020;4.248;2024-02-26T09:34:24;6.00;99.90
16301;DHT22;8258;51.020;4.248;2024-02-26T09:37:03;6.00;99.90
16301;DHT22;8258;51.020;4.248;2024-02-26T09:44:44;6.00;99.90
16301;DHT22;8258;51.020;4.248;2024-02-26T09:47:12;6.00;99.90
16301;DHT22;8258;51.020;4.248;2024-02-26T09:49:42;6.00;99.90
16301;DHT22;8258;51.020;4.248;2024-02-26T09:52:10;6.00;99.90
16301;DHT22;8258;51.020;4.248;2024-02-26T09:54:37;6.10;99.90
16301;DHT22;8258;51.020;4.248;2024-02-26T09:57:05;6.00;99.90
16301;DHT22;8258;51.020;4.248;2024-02-26T09:59:40;6.00;99.90
16301;DHT22;8258;51.020;4.248;2024-02-26T10:02:11;6.00;99.90
16301;DHT22;8258;51.020;4.248;2024-02-26T10:04:39;6.00;99.90
16301;DHT22;8258;51.020;4.248;2024-02-26T10:07:11;6.00;99.90
16301;DHT22;8258;51.020;4.248;2024-02-26T10:09:38;5.90;99.90
16301;DHT22;8258;51.020;4.248;2024-02-26T10:12:09;5.90;99.90
16301;DHT22;8258;51.020;4.248;2024-02-26T10:14:36;5.90;99.90
16301;DHT22;8258;51.020;4.248;2024-02-26T10:17:07;6.00;99.90
16301;DHT22;8258;51.020;4.248;2024-02-26T10:19:35;6.00;99.90
16301;DHT22;8258;51.020;4.248;2024-02-26T10:22:03;6.00;99.90
16301;DHT22;8258;51.020;4.248;2024-02-26T10:24:31;6.00;99.90
16301;DHT22;8258;51.020;4.248;2024-02-26T10:26:59;6.00;99.90
16301;DHT22;8258;51.020;4.248;2024-02-26T10:29:26;5.90;99.90
16301;DHT22;8258;51.020;4.248;2024-02-26T10:31:55;6.00;99.90
16301;DHT22;8258;51.020;4.248;2024-02-26T10:34:22;5.90;99.90
16301;DHT22;8258;51.020;4.248;2024-02-26T10:36:50;5.90;99.90
16301;DHT22;8258;51.020;4.248;2024-02-26T10:39:17;5.90;99.90
16301;DHT22;8258;51.020;4.248;2024-02-26T10:41:46;5.90;99.90
16301;DHT22;8258;51.020;4.248;2024-02-26T10:55:57;5.90;99.90
16301;DHT22;8258;51.020;4.248;2024-02-26T10:58:27;5.90;99.90
16301;DHT22;8258;51.020;4.248;2024-02-26T11:00:56;5.90;99.90
16301;DHT22;8258;51.020;4.248;2024-02-26T11:03:25;5.90;99.90
16301;DHT22;8258;51.020;4.248;2024-02-26T11:05:52;5.90;99.90
16301;DHT22;8258;51.020;4.248;2024-02-26T11:08:21;5.90;99.90
16301;DHT22;8258;51.020;4.248;2024-02-26T11:10:52;5.90;99.90
16301;DHT22;8258;51.020;4.248;2024-02-26T11:13:21;5.80;99.90
16301;DHT22;8258;51.020;4.248;2024-02-26T11:15:50;5.80;99.90
16301;DHT22;8258;51.020;4.248;2024-02-26T11:18:19;5.80;99.90
16301;DHT22;8258;51.020;4.248;2024-02-26T11:20:48;5.80;99.90
16301;DHT22;8258;51.020;4.248;2024-02-26T11:23:16;5.90;99.90
16301;DHT22;8258;51.020;4.248;2024-02-26T11:25:43;5.90;99.90
16301;DHT22;8258;51.020;4.248;2024-02-26T11:28:16;5.90;99.90
16301;DHT22;8258;51.020;4.248;2024-02-26T11:30:46;5.90;99.90
16301;DHT22;8258;51.020;4.248;2024-02-26T11:33:15;5.90;99.90
16301;DHT22;8258;51.020;4.248;2024-02-26T11:35:43;5.90;99.90
16301;DHT22;8258;51.020;4.248;2024-02-26T11:38:17;5.90;99.90
16301;DHT22;8258;51.020;4.248;2024-02-26T11:40:46;5.90;99.90
16301;DHT22;8258;51.020;4.248;2024-02-26T11:43:14;5.90;99.90
16301;DHT22;8258;51.020;4.248;2024-02-26T11:46:00;5.90;99.90
16301;DHT22;8258;51.020;4.248;2024-02-26T11:48:46;5.90;99.90
16301;DHT22;8258;51.020;4.248;2024-02-26T11:51:14;6.00;99.90
16301;DHT22;8258;51.020;4.248;2024-02-26T11:53:46;5.90;99.90
16301;DHT22;8258;51.020;4.248;2024-02-26T11:56:21;5.90;99.90
16301;DHT22;8258;51.020;4.248;2024-02-26T11:58:56;5.90;99.90
16301;DHT22;8258;51.020;4.248;2024-02-26T12:01:37;5.90;99.90
16301;DHT22;8258;51.020;4.248;2024-02-26T12:04:07;5.90;99.90
16301;DHT22;8258;51.020;4.248;2024-02-26T12:06:45;5.80;99.90
16301;DHT22;8258;51.020;4.248;2024-02-26T12:09:12;5.80;99.90
16301;DHT22;8258;51.020;4.248;2024-02-26T12:11:41;5.90;99.90
16301;DHT22;8258;51.020;4.248;2024-02-26T12:14:09;5.80;99.90
16301;DHT22;8258;51.020;4.248;2024-02-26T12:16:37;5.80;99.90
16301;DHT22;8258;51.020;4.248;2024-02-26T12:19:07;5.80;99.90
16301;DHT22;8258;51.020;4.248;2024-02-26T12:21:35;5.80;99.90
16301;DHT22;8258;51.020;4.248;2024-02-26T12:24:13;5.70;99.90
16301;DHT22;8258;51.020;4.248;2024-02-26T12:26:41;5.80;99.90
16301;DHT22;8258;51.020;4.248;2024-02-26T12:29:09;5.80;99.90
16301;DHT22;8258;51.020;4.248;2024-02-26T12:31:37;5.80;99.90
16301;DHT22;8258;51.020;4.248;2024-02-26T12:34:07;5.80;99.90
16301;DHT22;8258;51.020;4.248;2024-02-26T12:36:35;5.70;99.90
16301;DHT22;8258;51.020;4.248;2024-02-26T12:39:03;5.70;99.90
16301;DHT22;8258;51.020;4.248;2024-02-26T12:41:31;5.80;99.90
16301;DHT22;8258;51.020;4.248;2024-02-26T12:43:59;5.90;99.90
16301;DHT22;8258;51.020;4.248;2024-02-26T12:46:26;5.90;99.90
16301;DHT22;8258;51.020;4.248;2024-02-26T12:48:55;5.90;99.90
16301;DHT22;8258;51.020;4.248;2024-02-26T12:51:26;6.00;99.90
16301;DHT22;8258;51.020;4.248;2024-02-26T12:53:55;5.90;99.90
16301;DHT22;8258;51.020;4.248;2024-02-26T12:56:23;6.00;99.90
16301;DHT22;8258;51.020;4.248;2024-02-26T12:58:51;5.90;99.90
16301;DHT22;8258;51.020;4.248;2024-02-26T13:01:22;6.00;99.90
16301;DHT22;8258;51.020;4.248;2024-02-26T13:03:50;6.00;99.90
16301;DHT22;8258;51.020;4.248;2024-02-26T13:06:18;6.00;99.90
16301;DHT22;8258;51.020;4.248;2024-02-26T13:08:49;5.90;99.90
16301;DHT22;8258;51.020;4.248;2024-02-26T13:11:18;5.90;99.90
16301;DHT22;8258;51.020;4.248;2024-02-26T13:13:48;5.90;99.90
16301;DHT22;8258;51.020;4.248;2024-02-26T13:16:16;5.80;99.90
16301;DHT22;8258;51.020;4.248;2024-02-26T13:18:43;5.90;99.90
16301;DHT22;8258;51.020;4.248;2024-02-26T13:21:12;5.90;99.90
16301;DHT22;8258;51.020;4.248;2024-02-26T13:23:40;5.90;99.90
16301;DHT22;8258;51.020;4.248;2024-02-26T13:26:11;5.90;99.90
16301;DHT22;8258;51.020;4.248;2024-02-26T13:28:40;5.90;99.90
16301;DHT22;8258;51.020;4.248;2024-02-26T13:31:08;5.90;99.90
16301;DHT22;8258;51.020;4.248;2024-02-26T13:33:35;5.90;99.90
16301;DHT22;8258;51.020;4.248;2024-02-26T13:36:03;5.90;99.90
16301;DHT22;8258;51.020;4.248;2024-02-26T13:38:30;6.00;99.90
16301;DHT22;8258;51.020;4.248;2024-02-26T13:40:58;6.00;99.90
16301;DHT22;8258;51.020;4.248;2024-02-26T13:43:27;6.10;99.90
16301;DHT22;8258;51.020;4.248;2024-02-26T13:45:54;6.10;99.90
16301;DHT22;8258;51.020;4.248;2024-02-26T13:48:21;6.00;99.90
16301;DHT22;8258;51.020;4.248;2024-02-26T13:50:49;6.10;99.90
16301;DHT22;8258;51.020;4.248;2024-02-26T13:53:15;6.00;99.90
16301;DHT22;8258;51.020;4.248;2024-02-26T13:55:43;6.10;99.90
16301;DHT22;8258;51.020;4.248;2024-02-26T13:58:12;6.00;99.90
16301;DHT22;8258;51.020;4.248;2024-02-26T14:00:41;6.00;99.90
16301;DHT22;8258;51.020;4.248;2024-02-26T14:03:09;6.00;99.90
16301;DHT22;8258;51.020;4.248;2024-02-26T14:05:36;5.90;99.90
16301;DHT22;8258;51.020;4.248;2024-02-26T14:08:03;6.00;99.90
16301;DHT22;8258;51.020;4.248;2024-02-26T14:10:30;6.00;99.90
16301;DHT22;8258;51.020;4.248;2024-02-26T14:12:58;5.90;99.90
16301;DHT22;8258;51.020;4.248;2024-02-26T14:15:25;6.00;99.90
16301;DHT22;8258;51.020;4.248;2024-02-26T14:17:55;5.90;99.90
16301;DHT22;8258;51.020;4.248;2024-02-26T14:20:23;5.90;99.90
16301;DHT22;8258;51.020;4.248;2024-02-26T14:22:51;6.00;99.90
16301;DHT22;8258;51.020;4.248;2024-02-26T14:25:19;5.90;99.90
16301;DHT22;8258;51.020;4.248;2024-02-26T14:27:49;5.90;99.90
16301;DHT22;8258;51.020;4.248;2024-02-26T14:30:16;5.90;99.90
16301;DHT22;8258;51.020;4.248;2024-02-26T14:32:43;5.80;99.90
16301;DHT22;8258;51.020;4.248;2024-02-26T14:35:12;5.80;99.90
16301;DHT22;8258;51.020;4.248;2024-02-26T14:37:39;5.90;99.90
16301;DHT22;8258;51.020;4.248;2024-02-26T14:40:07;6.00;99.90
16301;DHT22;8258;51.020;4.248;2024-02-26T14:42:35;5.90;99.90
16301;DHT22;8258;51.020;4.248;2024-02-26T14:45:02;5.90;99.90
16301;DHT22;8258;51.020;4.248;2024-02-26T14:47:31;5.90;99.90
16301;DHT22;8258;51.020;4.248;2024-02-26T14:49:58;5.90;99.90
16301;DHT22;8258;51.020;4.248;2024-02-26T14:52:27;5.90;99.90
16301;DHT22;8258;51.020;4.248;2024-02-26T14:54:54;5.90;99.90
16301;DHT22;8258;51.020;4.248;2024-02-26T14:57:21;5.90;99.90
16301;DHT22;8258;51.020;4.248;2024-02-26T14:59:48;5.90;99.90
16301;DHT22;8258;51.020;4.248;2024-02-26T15:02:16;6.00;99.90
16301;DHT22;8258;51.020;4.248;2024-02-26T15:04:43;5.90;99.90
16301;DHT22;8258;51.020;4.248;2024-02-26T15:07:10;6.00;99.90
16301;DHT22;8258;51.020;4.248;2024-02-26T15:09:39;6.00;99.90
16301;DHT22;8258;51.020;4.248;2024-02-26T15:12:07;5.90;99.90
16301;DHT22;8258;51.020;4.248;2024-02-26T15:14:35;5.90;99.90
16301;DHT22;8258;51.020;4.248;2024-02-26T15:17:02;5.90;99.90
16301;DHT22;8258;51.020;4.248;2024-02-26T15:19:29;5.90;99.90
16301;DHT22;8258;51.020;4.248;2024-02-26T15:21:56;5.90;99.90
16301;DHT22;8258;51.020;4.248;2024-02-26T15:24:23;5.90;99.90
16301;DHT22;8258;51.020;4.248;2024-02-26T15:26:52;5.80;99.90
16301;DHT22;8258;51.020;4.248;2024-02-26T15:29:19;5.90;99.90
16301;DHT22;8258;51.020;4.248;2024-02-26T15:31:46;5.80;99.90
16301;DHT22;8258;51.020;4.248;2024-02-26T15:42:19;5.90;99.90
16301;DHT22;8258;51.020;4.248;2024-02-26T15:45:02;5.90;99.90
16301;DHT22;8258;51.020;4.248;2024-02-26T15:50:18;5.90;99.90
16301;DHT22;8258;51.020;4.248;2024-02-26T15:52:52;5.90;99.90
16301;DHT22;8258;51.020;4.248;2024-02-26T15:55:22;5.90;99.90
16301;DHT22;8258;51.020;4.248;2024-02-26T15:57:55;5.90;99.90
16301;DHT22;8258;51.020;4.248;2024-02-26T16:00:38;6.00;99.90
16301;DHT22;8258;51.020;4.248;2024-02-26T16:03:09;5.90;99.90
16301;DHT22;8258;51.020;4.248;2024-02-26T16:05:38;5.90;99.90
16301;DHT22;8258;51.020;4.248;2024-02-26T16:10:48;5.90;99.90
16301;DHT22;8258;51.020;4.248;2024-02-26T16:21:04;6.00;99.90
16301;DHT22;8258;51.020;4.248;2024-02-26T16:23:34;6.00;99.90
16301;DHT22;8258;51.020;4.248;2024-02-26T16:26:12;5.90;99.90
16301;DHT22;8258;51.020;4.248;2024-02-26T16:28:41;6.00;99.90
16301;DHT22;8258;51.020;4.248;2024-02-26T16:31:09;5.90;99.90
16301;DHT22;8258;51.020;4.248;2024-02-26T16:33:37;6.00;99.90
16301;DHT22;8258;51.020;4.248;2024-02-26T17:55:55;5.80;99.90
16301;DHT22;8258;51.020;4.248;2024-02-26T17:58:22;5.80;99.90
16301;DHT22;8258;51.020;4.248;2024-02-26T18:00:49;5.80;99.90
16301;DHT22;8258;51.020;4.248;2024-02-26T18:03:16;5.80;99.90
16301;DHT22;8258;51.020;4.248;2024-02-26T18:05:43;5.90;99.90
16301;DHT22;8258;51.020;4.248;2024-02-26T18:08:11;5.80;99.90
16301;DHT22;8258;51.020;4.248;2024-02-26T18:10:38;5.90;99.90
16301;DHT22;8258;51.020;4.248;2024-02-26T18:13:08;5.90;99.90
16301;DHT22;8258;51.020;4.248;2024-02-26T18:15:35;5.80;99.90
16301;DHT22;8258;51.020;4.248;2024-02-26T18:18:02;5.80;99.90
16301;DHT22;8258;51.020;4.248;2024-02-26T18:20:29;5.90;99.90
16301;DHT22;8258;51.020;4.248;2024-02-26T18:22:56;5.90;99.90
16301;DHT22;8258;51.020;4.248;2024-02-26T18:25:24;5.90;99.90
16301;DHT22;8258;51.020;4.248;2024-02-26T18:27:52;5.90;99.90
16301;DHT22;8258;51.020;4.248;2024-02-26T18:30:21;5.90;99.90
16301;DHT22;8258;51.020;4.248;2024-02-26T18:32:48;5.80;99.90
16301;DHT22;8258;51.020;4.248;2024-02-26T18:35:15;5.80;99.90
16301;DHT22;8258;51.020;4.248;2024-02-26T18:37:43;5.80;99.90
16301;DHT22;8258;51.020;4.248;2024-02-26T18:40:11;5.80;99.90
16301;DHT22;8258;51.020;4.248;2024-02-26T18:42:38;5.90;99.90
16301;DHT22;8258;51.020;4.248;2024-02-26T18:45:05;5.90;99.90
16301;DHT22;8258;51.020;4.248;2024-02-26T18:47:34;5.90;99.90
16301;DHT22;8258;51.020;4.248;2024-02-26T18:50:02;5.80;99.90
16301;DHT22;8258;51.020;4.248;2024-02-26T18:52:29;5.70;99.90
16301;DHT22;8258;51.020;4.248;2024-02-26T19:03:55;5.80;99.90
16301;DHT22;8258;51.020;4.248;2024-02-26T19:06:22;5.80;99.90
16301;DHT22;8258;51.020;4.248;2024-02-26T19:08:50;5.80;99.90
16301;DHT22;8258;51.020;4.248;2024-02-26T19:11:17;5.80;99.90
16301;DHT22;8258;51.020;4.248;2024-02-26T19:13:45;5.80;99.90
16301;DHT22;8258;51.020;4.248;2024-02-26T19:16:12;5.80;99.90
16301;DHT22;8258;51.020;4.248;2024-02-26T19:18:39;5.80;99.90
16301;DHT22;8258;51.020;4.248;2024-02-26T19:21:08;5.80;99.90
16301;DHT22;8258;51.020;4.248;2024-02-26T19:23:35;5.80;99.90
16301;DHT22;8258;51.020;4.248;2024-02-26T19:26:02;5.80;99.90
16301;DHT22;8258;51.020;4.248;2024-02-26T19:28:30;5.80;99.90
16301;DHT22;8258;51.020;4.248;2024-02-26T19:30:57;5.80;99.90
16301;DHT22;8258;51.020;4.248;2024-02-26T19:33:24;5.80;99.90
16301;DHT22;8258;51.020;4.248;2024-02-26T19:35:51;5.80;99.90
16301;DHT22;8258;51.020;4.248;2024-02-26T19:38:20;5.80;99.90
16301;DHT22;8258;51.020;4.248;2024-02-26T19:40:47;5.80;99.90
16301;DHT22;8258;51.020;4.248;2024-02-26T19:43:14;5.80;99.90
16301;DHT22;8258;51.020;4.248;2024-02-26T19:45:42;5.70;99.90
16301;DHT22;8258;51.020;4.248;2024-02-26T19:48:10;5.70;99.90
16301;DHT22;8258;51.020;4.248;2024-02-26T19:50:38;5.60;99.90
16301;DHT22;8258;51.020;4.248;2024-02-26T19:53:05;5.60;99.90
16301;DHT22;8258;51.020;4.248;2024-02-26T19:55:33;5.60;99.90
16301;DHT22;8258;51.020;4.248;2024-02-26T19:58:00;5.60;99.90
16301;DHT22;8258;51.020;4.248;2024-02-26T20:00:28;5.70;99.90
16301;DHT22;8258;51.020;4.248;2024-02-26T20:02:56;5.70;99.90
16301;DHT22;8258;51.020;4.248;2024-02-26T22:28:27;5.40;99.90
16301;DHT22;8258;51.020;4.248;2024-02-26T22:33:48;5.30;99.90
16301;DHT22;8258;51.020;4.248;2024-02-26T22:36:15;5.40;99.90
16301;DHT22;8258;51.020;4.248;2024-02-26T22:38:44;5.30;99.90
16301;DHT22;8258;51.020;4.248;2024-02-26T22:41:11;5.30;99.90
16301;DHT22;8258;51.020;4.248;2024-02-26T22:43:40;5.30;99.90
16301;DHT22;8258;51.020;4.248;2024-02-26T22:46:07;5.30;99.90
16301;DHT22;8258;51.020;4.248;2024-02-26T22:48:34;5.30;99.90
16301;DHT22;8258;51.020;4.248;2024-02-26T22:51:01;5.40;99.90
16301;DHT22;8258;51.020;4.248;2024-02-26T22:53:28;5.40;99.90
16301;DHT22;8258;51.020;4.248;2024-02-26T22:55:56;5.40;99.90
16301;DHT22;8258;51.020;4.248;2024-02-26T22:58:23;5.40;99.90
16301;DHT22;8258;51.020;4.248;2024-02-26T23:00:51;5.40;99.90
16301;DHT22;8258;51.020;4.248;2024-02-26T23:03:18;5.40;99.90
16301;DHT22;8258;51.020;4.248;2024-02-26T23:05:46;5.40;99.90
16301;DHT22;8258;51.020;4.248;2024-02-26T23:08:13;5.40;99.90
16301;DHT22;8258;51.020;4.248;2024-02-26T23:10:40;5.40;99.90
16301;DHT22;8258;51.020;4.248;2024-02-26T23:13:07;5.40;99.90
16301;DHT22;8258;51.020;4.248;2024-02-26T23:15:34;5.40;99.90
16301;DHT22;8258;51.020;4.248;2024-02-26T23:18:03;5.40;99.90
16301;DHT22;8258;51.020;4.248;2024-02-26T23:20:30;5.40;99.90
16301;DHT22;8258;51.020;4.248;2024-02-26T23:22:58;5.40;99.90
16301;DHT22;8258;51.020;4.248;2024-02-26T23:25:29;5.40;99.90
16301;DHT22;8258;51.020;4.248;2024-02-26T23:27:56;5.40;99.90
16301;DHT22;8258;51.020;4.248;2024-02-26T23:30:23;5.40;99.90
16301;DHT22;8258;51.020;4.248;2024-02-26T23:32:50;5.30;99.90
